sensor_id;sensor_type;location;lat;lon;timestamp;pressure;altitude;pressure_sealevel;temperature;humidity
51369;BME280;37459;51.416;5.502;2022-09-27T00:00:28;99249.75;;;9.46;100.00
51369;BME280;37459;51.416;5.502;2022-09-27T00:02:55;99258.56;;;9.58;100.00
51369;BME280;37459;51.416;5.502;2022-09-27T00:05:22;99259.84;;;9.56;100.00
51369;BME280;37459;51.416;5.502;2022-09-27T00:07:48;99257.47;;;9.42;100.00
51369;BME280;37459;51.416;5.502;2022-09-27T00:10:14;99254.53;;;9.44;100.00
51369;BME280;37459;51.416;5.502;2022-09-27T00:12:41;99275.53;;;9.59;100.00
51369;BME280;37459;51.416;5.502;2022-09-27T00:15:08;99274.69;;;9.58;100.00
51369;BME280;37459;51.416;5.502;2022-09-27T00:17:35;99269.47;;;9.52;100.00
51369;BME280;37459;51.416;5.502;2022-09-27T00:20:04;99264.94;;;9.52;100.00
51369;BME280;37459;51.416;5.502;2022-09-27T00:22:30;99259.00;;;9.38;100.00
51369;BME280;37459;51.416;5.502;2022-09-27T00:24:57;99264.97;;;9.40;100.00
51369;BME280;37459;51.416;5.502;2022-09-27T00:27:23;99268.94;;;9.38;100.00
51369;BME280;37459;51.416;5.502;2022-09-27T00:29:50;99269.28;;;9.41;100.00
51369;BME280;37459;51.416;5.502;2022-09-27T00:32:16;99269.91;;;9.32;100.00
51369;BME280;37459;51.416;5.502;2022-09-27T00:34:43;99270.69;;;9.44;100.00
51369;BME280;37459;51.416;5.502;2022-09-27T00:37:10;99275.13;;;9.38;100.00
51369;BME280;37459;51.416;5.502;2022-09-27T00:39:37;99273.69;;;9.48;100.00
51369;BME280;37459;51.416;5.502;2022-09-27T00:42:03;99276.44;;;9.36;100.00
51369;BME280;37459;51.416;5.502;2022-09-27T00:44:49;99293.97;;;9.38;100.00
51369;BME280;37459;51.416;5.502;2022-09-27T00:47:21;99304.56;;;9.45;100.00
51369;BME280;37459;51.416;5.502;2022-09-27T00:49:50;99303.69;;;9.39;100.00
51369;BME280;37459;51.416;5.502;2022-09-27T00:52:22;99289.28;;;9.45;100.00
51369;BME280;37459;51.416;5.502;2022-09-27T00:54:51;99285.75;;;9.45;100.00
51369;BME280;37459;51.416;5.502;2022-09-27T00:57:19;99297.97;;;9.36;100.00
51369;BME280;37459;51.416;5.502;2022-09-27T00:59:48;99289.81;;;9.19;100.00
51369;BME280;37459;51.416;5.502;2022-09-27T01:02:17;99300.34;;;9.20;100.00
51369;BME280;37459;51.416;5.502;2022-09-27T01:04:43;99291.22;;;9.21;100.00
51369;BME280;37459;51.416;5.502;2022-09-27T01:07:11;99296.38;;;9.23;100.00
51369;BME280;37459;51.416;5.502;2022-09-27T01:09:39;99290.63;;;9.19;100.00
51369;BME280;37459;51.416;5.502;2022-09-27T01:12:06;99295.91;;;9.14;100.00
51369;BME280;37459;51.416;5.502;2022-09-27T01:14:39;99290.41;;;9.21;100.00
51369;BME280;37459;51.416;5.502;2022-09-27T01:17:10;99290.63;;;9.19;100.00
51369;BME280;37459;51.416;5.502;2022-09-27T01:22:25;99297.56;;;9.15;100.00
51369;BME280;37459;51.416;5.502;2022-09-27T01:24:59;99293.00;;;9.16;100.00
51369;BME280;37459;51.416;5.502;2022-09-27T01:27:43;99288.44;;;9.16;100.00
51369;BME280;37459;51.416;5.502;2022-09-27T01:30:18;99291.84;;;9.12;100.00
51369;BME280;37459;51.416;5.502;2022-09-27T01:32:47;99287.72;;;9.21;100.00
51369;BME280;37459;51.416;5.502;2022-09-27T01:35:18;99292.66;;;9.12;100.00
51369;BME280;37459;51.416;5.502;2022-09-27T01:37:48;99298.25;;;9.22;100.00
51369;BME280;37459;51.416;5.502;2022-09-27T01:40:17;99296.28;;;9.18;100.00
51369;BME280;37459;51.416;5.502;2022-09-27T01:42:49;99299.69;;;9.01;100.00
51369;BME280;37459;51.416;5.502;2022-09-27T01:45:22;99308.47;;;9.09;100.00
51369;BME280;37459;51.416;5.502;2022-09-27T01:47:51;99320.97;;;9.03;100.00
51369;BME280;37459;51.416;5.502;2022-09-27T01:50:20;99313.25;;;9.07;100.00
51369;BME280;37459;51.416;5.502;2022-09-27T01:52:50;99316.63;;;9.02;100.00
51369;BME280;37459;51.416;5.502;2022-09-27T01:55:19;99314.38;;;9.11;100.00
51369;BME280;37459;51.416;5.502;2022-09-27T01:57:49;99311.38;;;9.07;100.00
51369;BME280;37459;51.416;5.502;2022-09-27T02:00:21;99318.38;;;9.08;100.00
51369;BME280;37459;51.416;5.502;2022-09-27T02:02:49;99311.84;;;9.04;100.00
51369;BME280;37459;51.416;5.502;2022-09-27T02:05:16;99310.81;;;9.05;100.00
51369;BME280;37459;51.416;5.502;2022-09-27T02:07:45;99308.84;;;8.89;100.00
51369;BME280;37459;51.416;5.502;2022-09-27T02:10:13;99319.31;;;9.02;100.00
51369;BME280;37459;51.416;5.502;2022-09-27T02:12:48;99325.66;;;8.96;100.00
51369;BME280;37459;51.416;5.502;2022-09-27T02:15:16;99325.53;;;9.02;100.00
51369;BME280;37459;51.416;5.502;2022-09-27T02:17:46;99328.09;;;8.97;100.00
51369;BME280;37459;51.416;5.502;2022-09-27T02:20:20;99316.69;;;8.78;100.00
51369;BME280;37459;51.416;5.502;2022-09-27T02:22:50;99317.97;;;8.88;100.00
51369;BME280;37459;51.416;5.502;2022-09-27T02:25:20;99330.69;;;8.92;100.00
51369;BME280;37459;51.416;5.502;2022-09-27T02:27:50;99335.38;;;8.85;100.00
51369;BME280;37459;51.416;5.502;2022-09-27T02:30:17;99328.72;;;8.88;100.00
51369;BME280;37459;51.416;5.502;2022-09-27T02:32:45;99334.31;;;8.86;100.00
51369;BME280;37459;51.416;5.502;2022-09-27T02:35:12;99335.84;;;8.94;100.00
51369;BME280;37459;51.416;5.502;2022-09-27T02:37:40;99324.16;;;8.88;100.00
51369;BME280;37459;51.416;5.502;2022-09-27T02:40:07;99328.34;;;8.84;100.00
51369;BME280;37459;51.416;5.502;2022-09-27T02:42:34;99315.63;;;8.79;100.00
51369;BME280;37459;51.416;5.502;2022-09-27T02:45:00;99316.44;;;8.80;100.00
51369;BME280;37459;51.416;5.502;2022-09-27T02:47:30;99324.97;;;8.65;100.00
51369;BME280;37459;51.416;5.502;2022-09-27T02:50:05;99335.25;;;8.68;100.00
51369;BME280;37459;51.416;5.502;2022-09-27T02:52:36;99340.88;;;8.78;100.00
51369;BME280;37459;51.416;5.502;2022-09-27T02:55:07;99342.41;;;8.74;100.00
51369;BME280;37459;51.416;5.502;2022-09-27T02:57:39;99339.56;;;8.69;100.00
51369;BME280;37459;51.416;5.502;2022-09-27T03:00:10;99334.56;;;8.73;100.00
51369;BME280;37459;51.416;5.502;2022-09-27T03:02:42;99324.75;;;8.78;100.00
51369;BME280;37459;51.416;5.502;2022-09-27T03:05:16;99325.09;;;8.82;100.00
51369;BME280;37459;51.416;5.502;2022-09-27T03:07:43;99326.25;;;8.62;100.00
51369;BME280;37459;51.416;5.502;2022-09-27T03:10:14;99324.41;;;8.51;100.00
51369;BME280;37459;51.416;5.502;2022-09-27T03:12:41;99328.97;;;8.51;100.00
51369;BME280;37459;51.416;5.502;2022-09-27T03:15:08;99335.03;;;8.58;100.00
51369;BME280;37459;51.416;5.502;2022-09-27T03:17:35;99331.63;;;8.62;100.00
51369;BME280;37459;51.416;5.502;2022-09-27T03:20:02;99334.34;;;8.51;100.00
51369;BME280;37459;51.416;5.502;2022-09-27T03:22:30;99323.13;;;8.54;100.00
51369;BME280;37459;51.416;5.502;2022-09-27T03:24:56;99332.56;;;8.45;100.00
51369;BME280;37459;51.416;5.502;2022-09-27T03:27:22;99324.88;;;8.48;100.00
51369;BME280;37459;51.416;5.502;2022-09-27T03:29:49;99335.25;;;8.45;100.00
51369;BME280;37459;51.416;5.502;2022-09-27T03:32:15;99326.94;;;8.34;100.00
51369;BME280;37459;51.416;5.502;2022-09-27T03:34:42;99326.63;;;8.42;100.00
51369;BME280;37459;51.416;5.502;2022-09-27T03:37:09;99333.16;;;8.47;100.00
51369;BME280;37459;51.416;5.502;2022-09-27T03:39:36;99334.78;;;8.48;100.00
51369;BME280;37459;51.416;5.502;2022-09-27T03:42:03;99347.28;;;8.42;100.00
51369;BME280;37459;51.416;5.502;2022-09-27T03:44:30;99343.84;;;8.35;100.00
51369;BME280;37459;51.416;5.502;2022-09-27T03:46:56;99344.69;;;8.35;100.00
51369;BME280;37459;51.416;5.502;2022-09-27T03:49:23;99340.28;;;8.41;100.00
51369;BME280;37459;51.416;5.502;2022-09-27T03:51:49;99342.81;;;8.36;100.00
51369;BME280;37459;51.416;5.502;2022-09-27T03:54:16;99336.78;;;8.40;100.00
51369;BME280;37459;51.416;5.502;2022-09-27T03:56:43;99341.91;;;8.42;100.00
51369;BME280;37459;51.416;5.502;2022-09-27T03:59:10;99347.38;;;8.35;100.00
51369;BME280;37459;51.416;5.502;2022-09-27T04:01:36;99362.72;;;8.47;100.00
51369;BME280;37459;51.416;5.502;2022-09-27T04:04:03;99354.38;;;8.36;100.00
51369;BME280;37459;51.416;5.502;2022-09-27T04:06:29;99358.94;;;8.36;100.00
51369;BME280;37459;51.416;5.502;2022-09-27T04:08:56;99359.72;;;8.36;100.00
51369;BME280;37459;51.416;5.502;2022-09-27T04:11:22;99367.97;;;8.41;100.00
51369;BME280;37459;51.416;5.502;2022-09-27T04:13:50;99368.44;;;8.50;100.00
51369;BME280;37459;51.416;5.502;2022-09-27T04:16:16;99375.09;;;8.59;100.00
51369;BME280;37459;51.416;5.502;2022-09-27T04:18:42;99376.50;;;8.50;100.00
51369;BME280;37459;51.416;5.502;2022-09-27T04:21:09;99378.94;;;8.52;100.00
51369;BME280;37459;51.416;5.502;2022-09-27T04:23:35;99380.00;;;8.51;100.00
51369;BME280;37459;51.416;5.502;2022-09-27T04:26:02;99385.94;;;8.53;100.00
51369;BME280;37459;51.416;5.502;2022-09-27T04:28:28;99380.00;;;8.51;100.00
51369;BME280;37459;51.416;5.502;2022-09-27T04:30:57;99367.84;;;8.48;100.00
51369;BME280;37459;51.416;5.502;2022-09-27T04:33:23;99373.66;;;8.45;100.00
51369;BME280;37459;51.416;5.502;2022-09-27T04:35:50;99374.84;;;8.49;100.00
51369;BME280;37459;51.416;5.502;2022-09-27T04:38:33;99370.94;;;8.33;100.00
51369;BME280;37459;51.416;5.502;2022-09-27T04:41:00;99363.28;;;8.49;100.00
51369;BME280;37459;51.416;5.502;2022-09-27T04:43:26;99357.22;;;8.41;100.00
51369;BME280;37459;51.416;5.502;2022-09-27T04:45:53;99358.13;;;8.35;100.00
51369;BME280;37459;51.416;5.502;2022-09-27T04:48:20;99355.44;;;8.35;100.00
51369;BME280;37459;51.416;5.502;2022-09-27T04:50:54;99352.75;;;8.35;100.00
51369;BME280;37459;51.416;5.502;2022-09-27T04:53:20;99352.03;;;8.40;100.00
51369;BME280;37459;51.416;5.502;2022-09-27T04:55:46;99359.72;;;8.36;100.00
51369;BME280;37459;51.416;5.502;2022-09-27T04:58:14;99360.44;;;8.20;100.00
51369;BME280;37459;51.416;5.502;2022-09-27T05:00:41;99351.34;;;8.33;100.00
51369;BME280;37459;51.416;5.502;2022-09-27T05:03:07;99351.09;;;8.34;100.00
51369;BME280;37459;51.416;5.502;2022-09-27T05:05:35;99357.53;;;8.33;100.00
51369;BME280;37459;51.416;5.502;2022-09-27T05:08:01;99355.28;;;8.30;100.00
51369;BME280;37459;51.416;5.502;2022-09-27T05:10:28;99361.13;;;8.39;100.00
51369;BME280;37459;51.416;5.502;2022-09-27T05:12:54;99365.03;;;8.43;100.00
51369;BME280;37459;51.416;5.502;2022-09-27T05:15:20;99364.66;;;8.39;100.00
51369;BME280;37459;51.416;5.502;2022-09-27T05:17:49;99369.00;;;8.40;100.00
51369;BME280;37459;51.416;5.502;2022-09-27T05:20:16;99371.69;;;8.40;100.00
51369;BME280;37459;51.416;5.502;2022-09-27T05:22:44;99376.66;;;8.37;100.00
51369;BME280;37459;51.416;5.502;2022-09-27T05:25:11;99386.41;;;8.50;100.00
51369;BME280;37459;51.416;5.502;2022-09-27T05:27:37;99386.75;;;8.41;100.00
51369;BME280;37459;51.416;5.502;2022-09-27T05:30:05;99393.22;;;8.22;100.00
51369;BME280;37459;51.416;5.502;2022-09-27T05:32:32;99391.47;;;8.28;100.00
51369;BME280;37459;51.416;5.502;2022-09-27T05:34:58;99382.63;;;8.39;100.00
51369;BME280;37459;51.416;5.502;2022-09-27T05:37:25;99383.63;;;8.26;100.00
51369;BME280;37459;51.416;5.502;2022-09-27T05:39:52;99383.88;;;8.25;100.00
51369;BME280;37459;51.416;5.502;2022-09-27T05:42:19;99382.25;;;8.23;100.00
51369;BME280;37459;51.416;5.502;2022-09-27T05:44:45;99384.13;;;8.23;100.00
51369;BME280;37459;51.416;5.502;2022-09-27T05:47:12;99383.41;;;8.28;100.00
51369;BME280;37459;51.416;5.502;2022-09-27T05:49:39;99382.25;;;8.23;100.00
51369;BME280;37459;51.416;5.502;2022-09-27T05:52:06;99384.22;;;8.16;100.00
51369;BME280;37459;51.416;5.502;2022-09-27T05:54:32;99399.53;;;8.28;100.00
51369;BME280;37459;51.416;5.502;2022-09-27T05:57:00;99392.38;;;8.10;100.00
51369;BME280;37459;51.416;5.502;2022-09-27T05:59:27;99395.66;;;8.23;100.00
51369;BME280;37459;51.416;5.502;2022-09-27T06:01:53;99400.81;;;8.25;100.00
51369;BME280;37459;51.416;5.502;2022-09-27T06:04:20;99405.00;;;8.21;100.00
51369;BME280;37459;51.416;5.502;2022-09-27T06:06:46;99394.84;;;8.23;100.00
51369;BME280;37459;51.416;5.502;2022-09-27T06:09:13;99396.72;;;8.22;100.00
51369;BME280;37459;51.416;5.502;2022-09-27T06:11:40;99395.44;;;8.25;100.00
51369;BME280;37459;51.416;5.502;2022-09-27T06:14:10;99392.28;;;8.28;100.00
51369;BME280;37459;51.416;5.502;2022-09-27T06:16:37;99394.81;;;8.41;100.00
51369;BME280;37459;51.416;5.502;2022-09-27T06:19:03;99393.16;;;8.40;100.00
51369;BME280;37459;51.416;5.502;2022-09-27T06:21:30;99394.81;;;8.41;100.00
51369;BME280;37459;51.416;5.502;2022-09-27T06:23:56;99402.34;;;8.33;100.00
51369;BME280;37459;51.416;5.502;2022-09-27T06:26:23;99399.91;;;8.31;100.00
51369;BME280;37459;51.416;5.502;2022-09-27T06:28:51;99396.63;;;8.29;100.00
51369;BME280;37459;51.416;5.502;2022-09-27T06:31:18;99401.22;;;8.40;100.00
51369;BME280;37459;51.416;5.502;2022-09-27T06:33:45;99401.53;;;8.32;100.00
51369;BME280;37459;51.416;5.502;2022-09-27T06:36:12;99403.72;;;8.23;100.00
51369;BME280;37459;51.416;5.502;2022-09-27T06:38:38;99398.44;;;8.17;100.00
51369;BME280;37459;51.416;5.502;2022-09-27T06:41:05;99402.31;;;8.21;100.00
51369;BME280;37459;51.416;5.502;2022-09-27T06:43:33;99401.34;;;8.15;100.00
51369;BME280;37459;51.416;5.502;2022-09-27T06:46:01;99401.59;;;8.14;100.00
51369;BME280;37459;51.416;5.502;2022-09-27T06:48:31;99402.53;;;8.19;100.00
51369;BME280;37459;51.416;5.502;2022-09-27T06:50:58;99403.38;;;8.20;100.00
51369;BME280;37459;51.416;5.502;2022-09-27T06:53:24;99400.94;;;8.30;100.00
51369;BME280;37459;51.416;5.502;2022-09-27T06:55:52;99403.69;;;8.12;100.00
51369;BME280;37459;51.416;5.502;2022-09-27T06:58:18;99405.81;;;8.21;100.00
51369;BME280;37459;51.416;5.502;2022-09-27T07:01:02;99415.38;;;8.17;100.00
51369;BME280;37459;51.416;5.502;2022-09-27T07:03:28;99416.00;;;8.31;100.00
51369;BME280;37459;51.416;5.502;2022-09-27T07:06:00;99412.50;;;8.31;100.00
51369;BME280;37459;51.416;5.502;2022-09-27T07:08:27;99415.47;;;8.41;100.00
51369;BME280;37459;51.416;5.502;2022-09-27T07:10:54;99417.88;;;8.31;100.00
51369;BME280;37459;51.416;5.502;2022-09-27T07:13:21;99412.16;;;8.39;100.00
51369;BME280;37459;51.416;5.502;2022-09-27T07:15:47;99402.50;;;8.50;100.00
51369;BME280;37459;51.416;5.502;2022-09-27T07:18:14;99410.47;;;8.45;100.00
51369;BME280;37459;51.416;5.502;2022-09-27T07:20:40;99414.44;;;8.42;100.00
51369;BME280;37459;51.416;5.502;2022-09-27T07:23:09;99413.41;;;8.55;100.00
51369;BME280;37459;51.416;5.502;2022-09-27T07:25:35;99421.56;;;8.48;100.00
51369;BME280;37459;51.416;5.502;2022-09-27T07:28:02;99423.06;;;8.56;100.00
51369;BME280;37459;51.416;5.502;2022-09-27T07:30:29;99418.88;;;8.60;100.00
51369;BME280;37459;51.416;5.502;2022-09-27T07:32:56;99414.69;;;8.64;100.00
51369;BME280;37459;51.416;5.502;2022-09-27T07:35:23;99424.16;;;8.67;100.00
51369;BME280;37459;51.416;5.502;2022-09-27T07:37:49;99419.59;;;8.79;100.00
51369;BME280;37459;51.416;5.502;2022-09-27T07:40:17;99424.88;;;8.86;100.00
51369;BME280;37459;51.416;5.502;2022-09-27T07:42:44;99428.25;;;8.93;100.00
51369;BME280;37459;51.416;5.502;2022-09-27T07:45:11;99419.84;;;8.77;100.00
51369;BME280;37459;51.416;5.502;2022-09-27T07:47:38;99425.91;;;8.73;100.00
51369;BME280;37459;51.416;5.502;2022-09-27T07:50:04;99430.31;;;8.67;100.00
51369;BME280;37459;51.416;5.502;2022-09-27T07:52:37;99428.22;;;8.69;100.00
51369;BME280;37459;51.416;5.502;2022-09-27T07:55:04;99423.91;;;8.80;100.00
51369;BME280;37459;51.416;5.502;2022-09-27T07:57:31;99430.00;;;8.75;100.00
51369;BME280;37459;51.416;5.502;2022-09-27T07:59:58;99435.38;;;8.87;100.00
51369;BME280;37459;51.416;5.502;2022-09-27T08:02:24;99437.25;;;8.98;100.00
51369;BME280;37459;51.416;5.502;2022-09-27T08:04:51;99435.63;;;8.86;100.00
51369;BME280;37459;51.416;5.502;2022-09-27T08:07:17;99442.75;;;8.92;100.00
51369;BME280;37459;51.416;5.502;2022-09-27T08:09:43;99448.34;;;8.90;100.00
51369;BME280;37459;51.416;5.502;2022-09-27T08:12:10;99440.28;;;8.90;100.00
51369;BME280;37459;51.416;5.502;2022-09-27T08:14:37;99441.44;;;8.82;100.00
51369;BME280;37459;51.416;5.502;2022-09-27T08:17:04;99447.66;;;8.95;100.00
51369;BME280;37459;51.416;5.502;2022-09-27T08:19:30;99460.06;;;8.96;100.00
51369;BME280;37459;51.416;5.502;2022-09-27T08:21:57;99452.91;;;8.90;100.00
51369;BME280;37459;51.416;5.502;2022-09-27T08:24:23;99456.78;;;8.94;100.00
51369;BME280;37459;51.416;5.502;2022-09-27T08:26:50;99460.72;;;8.91;100.00
51369;BME280;37459;51.416;5.502;2022-09-27T08:29:16;99456.88;;;8.87;100.00
51369;BME280;37459;51.416;5.502;2022-09-27T08:31:44;99463.31;;;8.98;100.00
51369;BME280;37459;51.416;5.502;2022-09-27T08:34:10;99456.53;;;9.07;100.00
51369;BME280;37459;51.416;5.502;2022-09-27T08:36:37;99459.00;;;9.09;100.00
51369;BME280;37459;51.416;5.502;2022-09-27T08:39:03;99460.25;;;9.06;100.00
51369;BME280;37459;51.416;5.502;2022-09-27T08:41:32;99465.06;;;9.04;100.00
51369;BME280;37459;51.416;5.502;2022-09-27T08:44:04;99465.78;;;9.11;100.00
51369;BME280;37459;51.416;5.502;2022-09-27T08:46:34;99460.63;;;9.10;100.00
51369;BME280;37459;51.416;5.502;2022-09-27T08:49:11;99463.19;;;9.16;100.00
51369;BME280;37459;51.416;5.502;2022-09-27T08:51:40;99464.50;;;9.14;100.00
51369;BME280;37459;51.416;5.502;2022-09-27T08:54:07;99461.22;;;9.12;100.00
51369;BME280;37459;51.416;5.502;2022-09-27T08:56:37;99465.19;;;9.09;100.00
51369;BME280;37459;51.416;5.502;2022-09-27T08:59:05;99452.34;;;9.11;100.00
51369;BME280;37459;51.416;5.502;2022-09-27T09:01:35;99458.88;;;9.03;100.00
51369;BME280;37459;51.416;5.502;2022-09-27T09:04:01;99461.31;;;9.17;100.00
51369;BME280;37459;51.416;5.502;2022-09-27T09:06:32;99461.31;;;9.29;100.00
51369;BME280;37459;51.416;5.502;2022-09-27T09:09:03;99456.41;;;9.37;100.00
51369;BME280;37459;51.416;5.502;2022-09-27T09:11:40;99461.31;;;9.40;100.00
51369;BME280;37459;51.416;5.502;2022-09-27T09:14:32;99460.47;;;9.28;100.00
51369;BME280;37459;51.416;5.502;2022-09-27T09:17:03;99462.25;;;9.34;100.00
51369;BME280;37459;51.416;5.502;2022-09-27T09:19:42;99460.63;;;9.33;100.00
51369;BME280;37459;51.416;5.502;2022-09-27T09:22:17;99458.03;;;9.38;100.00
51369;BME280;37459;51.416;5.502;2022-09-27T09:24:53;99460.13;;;9.48;100.00
51369;BME280;37459;51.416;5.502;2022-09-27T09:27:23;99460.69;;;10.02;100.00
51369;BME280;37459;51.416;5.502;2022-09-27T09:29:57;99465.88;;;10.50;100.00
51369;BME280;37459;51.416;5.502;2022-09-27T09:32:28;99462.69;;;10.53;100.00
51369;BME280;37459;51.416;5.502;2022-09-27T09:34:58;99471.59;;;10.70;100.00
51369;BME280;37459;51.416;5.502;2022-09-27T09:37:29;99466.88;;;10.77;100.00
51369;BME280;37459;51.416;5.502;2022-09-27T09:40:02;99473.97;;;10.66;100.00
51369;BME280;37459;51.416;5.502;2022-09-27T09:42:33;99470.50;;;10.37;100.00
51369;BME280;37459;51.416;5.502;2022-09-27T09:45:01;99470.59;;;10.14;100.00
51369;BME280;37459;51.416;5.502;2022-09-27T09:47:30;99463.69;;;10.06;100.00
51369;BME280;37459;51.416;5.502;2022-09-27T09:50:00;99470.53;;;9.97;100.00
51369;BME280;37459;51.416;5.502;2022-09-27T09:52:35;99472.44;;;9.84;100.00
51369;BME280;37459;51.416;5.502;2022-09-27T09:55:05;99475.25;;;9.90;100.00
51369;BME280;37459;51.416;5.502;2022-09-27T09:57:34;99471.81;;;9.94;100.00
51369;BME280;37459;51.416;5.502;2022-09-27T10:00:06;99466.81;;;9.86;100.00
51369;BME280;37459;51.416;5.502;2022-09-27T10:02:38;99475.97;;;9.73;100.00
51369;BME280;37459;51.416;5.502;2022-09-27T10:05:06;99475.59;;;9.81;100.00
51369;BME280;37459;51.416;5.502;2022-09-27T10:07:35;99471.75;;;9.77;100.00
51369;BME280;37459;51.416;5.502;2022-09-27T10:10:04;99471.16;;;9.87;100.00
51369;BME280;37459;51.416;5.502;2022-09-27T10:12:32;99481.78;;;9.94;100.00
51369;BME280;37459;51.416;5.502;2022-09-27T10:15:00;99479.22;;;9.87;100.00
51369;BME280;37459;51.416;5.502;2022-09-27T10:17:34;99471.75;;;9.77;100.00
51369;BME280;37459;51.416;5.502;2022-09-27T10:20:03;99476.47;;;9.70;100.00
51369;BME280;37459;51.416;5.502;2022-09-27T10:22:32;99467.31;;;9.83;100.00
51369;BME280;37459;51.416;5.502;2022-09-27T10:25:03;99472.09;;;9.81;100.00
51369;BME280;37459;51.416;5.502;2022-09-27T10:27:36;99478.78;;;9.78;100.00
51369;BME280;37459;51.416;5.502;2022-09-27T10:30:04;99473.00;;;9.86;100.00
51369;BME280;37459;51.416;5.502;2022-09-27T10:32:31;99476.91;;;9.79;100.00
51369;BME280;37459;51.416;5.502;2022-09-27T10:35:19;99482.66;;;9.71;100.00
51369;BME280;37459;51.416;5.502;2022-09-27T10:37:46;99481.22;;;9.80;100.00
51369;BME280;37459;51.416;5.502;2022-09-27T10:40:24;99479.38;;;9.69;100.00
51369;BME280;37459;51.416;5.502;2022-09-27T10:42:51;99473.53;;;9.72;100.00
51369;BME280;37459;51.416;5.502;2022-09-27T10:45:27;99479.25;;;9.75;100.00
51369;BME280;37459;51.416;5.502;2022-09-27T10:47:54;99482.28;;;9.79;100.00
51369;BME280;37459;51.416;5.502;2022-09-27T10:50:22;99485.44;;;9.76;100.00
51369;BME280;37459;51.416;5.502;2022-09-27T10:52:58;99479.06;;;9.65;100.00
51369;BME280;37459;51.416;5.502;2022-09-27T10:55:27;99487.00;;;9.72;100.00
51369;BME280;37459;51.416;5.502;2022-09-27T10:57:54;99492.63;;;9.58;100.00
51369;BME280;37459;51.416;5.502;2022-09-27T11:00:21;99485.84;;;9.56;100.00
51369;BME280;37459;51.416;5.502;2022-09-27T11:02:50;99492.88;;;9.57;100.00
51369;BME280;37459;51.416;5.502;2022-09-27T11:05:28;99493.09;;;9.55;100.00
51369;BME280;37459;51.416;5.502;2022-09-27T11:07:56;99486.88;;;9.66;100.00
51369;BME280;37459;51.416;5.502;2022-09-27T11:10:23;99491.34;;;9.61;100.00
51369;BME280;37459;51.416;5.502;2022-09-27T11:13:06;99483.13;;;9.68;100.00
51369;BME280;37459;51.416;5.502;2022-09-27T11:15:34;99485.13;;;9.72;100.00
51369;BME280;37459;51.416;5.502;2022-09-27T11:18:07;99484.91;;;9.62;100.00
51369;BME280;37459;51.416;5.502;2022-09-27T11:20:37;99481.94;;;9.75;100.00
51369;BME280;37459;51.416;5.502;2022-09-27T11:23:16;99477.28;;;9.71;100.00
51369;BME280;37459;51.416;5.502;2022-09-27T11:25:51;99479.88;;;9.65;100.00
51369;BME280;37459;51.416;5.502;2022-09-27T11:28:26;99466.50;;;9.71;100.00
51369;BME280;37459;51.416;5.502;2022-09-27T11:31:00;99470.94;;;9.77;100.00
51369;BME280;37459;51.416;5.502;2022-09-27T11:33:38;99468.84;;;9.79;100.00
51369;BME280;37459;51.416;5.502;2022-09-27T11:36:08;99463.53;;;9.96;100.00
51369;BME280;37459;51.416;5.502;2022-09-27T11:38:40;99456.84;;;9.98;100.00
51369;BME280;37459;51.416;5.502;2022-09-27T11:41:10;99456.84;;;9.98;100.00
51369;BME280;37459;51.416;5.502;2022-09-27T11:43:46;99457.72;;;10.04;100.00
51369;BME280;37459;51.416;5.502;2022-09-27T11:46:19;99460.78;;;10.07;100.00
51369;BME280;37459;51.416;5.502;2022-09-27T11:49:00;99457.28;;;9.95;100.00
51369;BME280;37459;51.416;5.502;2022-09-27T11:51:33;99452.03;;;10.00;100.00
51369;BME280;37459;51.416;5.502;2022-09-27T11:54:11;99453.34;;;9.98;100.00
51369;BME280;37459;51.416;5.502;2022-09-27T11:56:42;99451.22;;;10.00;100.00
51369;BME280;37459;51.416;5.502;2022-09-27T12:02:03;99455.09;;;10.21;100.00
51369;BME280;37459;51.416;5.502;2022-09-27T12:04:42;99444.03;;;10.34;100.00
51369;BME280;37459;51.416;5.502;2022-09-27T12:07:13;99450.59;;;10.38;98.82
51369;BME280;37459;51.416;5.502;2022-09-27T12:09:44;99440.97;;;10.42;99.87
51369;BME280;37459;51.416;5.502;2022-09-27T12:12:13;99444.22;;;10.44;100.00
51369;BME280;37459;51.416;5.502;2022-09-27T12:14:43;99445.16;;;10.50;98.68
51369;BME280;37459;51.416;5.502;2022-09-27T12:17:13;99450.19;;;10.46;99.38
51369;BME280;37459;51.416;5.502;2022-09-27T12:19:41;99449.78;;;10.38;98.85
51369;BME280;37459;51.416;5.502;2022-09-27T12:22:12;99451.69;;;10.54;99.52
51369;BME280;37459;51.416;5.502;2022-09-27T12:24:39;99441.47;;;10.56;100.00
51369;BME280;37459;51.416;5.502;2022-09-27T12:27:08;99444.59;;;10.65;99.56
51369;BME280;37459;51.416;5.502;2022-09-27T12:29:39;99443.44;;;10.61;100.00
51369;BME280;37459;51.416;5.502;2022-09-27T12:32:08;99434.28;;;10.62;98.20
51369;BME280;37459;51.416;5.502;2022-09-27T12:34:38;99433.47;;;10.78;99.63
51369;BME280;37459;51.416;5.502;2022-09-27T12:37:09;99435.59;;;10.76;95.37
51369;BME280;37459;51.416;5.502;2022-09-27T12:39:40;99427.41;;;10.71;99.25
51369;BME280;37459;51.416;5.502;2022-09-27T12:42:12;99429.22;;;10.65;96.70
51369;BME280;37459;51.416;5.502;2022-09-27T12:44:39;99429.53;;;10.69;97.12
51369;BME280;37459;51.416;5.502;2022-09-27T12:47:08;99433.53;;;10.83;100.00
51369;BME280;37459;51.416;5.502;2022-09-27T12:49:43;99432.63;;;10.95;98.50
51369;BME280;37459;51.416;5.502;2022-09-27T12:52:11;99436.31;;;10.88;98.25
51369;BME280;37459;51.416;5.502;2022-09-27T12:54:48;99440.66;;;10.89;96.48
51369;BME280;37459;51.416;5.502;2022-09-27T12:57:20;99433.31;;;10.85;100.00
51369;BME280;37459;51.416;5.502;2022-09-27T12:59:52;99434.28;;;10.62;100.00
51369;BME280;37459;51.416;5.502;2022-09-27T13:05:20;99433.63;;;10.55;100.00
51369;BME280;37459;51.416;5.502;2022-09-27T13:08:03;99436.66;;;10.58;100.00
51369;BME280;37459;51.416;5.502;2022-09-27T13:10:39;99426.38;;;10.72;100.00
51369;BME280;37459;51.416;5.502;2022-09-27T13:13:08;99430.22;;;10.76;100.00
51369;BME280;37459;51.416;5.502;2022-09-27T13:15:37;99421.31;;;10.76;100.00
51369;BME280;37459;51.416;5.502;2022-09-27T13:18:04;99418.13;;;10.79;100.00